createdAt,value
2022-09-21T00:01:39.302Z,11.32
2022-09-21T00:04:08.272Z,11.26
2022-09-21T00:06:37.592Z,11.23
2022-09-21T00:09:08.052Z,11.24
2022-09-21T00:11:36.855Z,11.20
2022-09-21T00:14:11.104Z,11.14
2022-09-21T00:16:42.693Z,11.12
2022-09-21T00:19:11.852Z,11.13
2022-09-21T00:21:40.441Z,11.10
2022-09-21T00:24:08.881Z,11.03
2022-09-21T00:26:36.758Z,11.00
2022-09-21T00:29:05.496Z,10.96
2022-09-21T00:31:34.063Z,10.89
2022-09-21T00:34:07.530Z,10.84
2022-09-21T00:36:36.180Z,10.70
2022-09-21T00:39:06.160Z,10.53
2022-09-21T00:41:35.518Z,10.47
2022-09-21T00:44:29.692Z,10.53
2022-09-21T00:47:05.857Z,10.53
2022-09-21T00:49:37.519Z,10.54
2022-09-21T00:52:08.517Z,10.43
2022-09-21T00:54:45.202Z,10.35
2022-09-21T00:57:19.012Z,10.36
2022-09-21T00:59:51.420Z,10.38
2022-09-21T01:02:21.144Z,10.37
2022-09-21T01:04:56.454Z,10.36
2022-09-21T01:07:32.036Z,10.35
2022-09-21T01:10:05.759Z,10.35
2022-09-21T01:13:02.682Z,10.33
2022-09-21T01:15:42.203Z,10.28
2022-09-21T01:18:23.130Z,10.12
2022-09-21T01:21:20.171Z,10.06
2022-09-21T01:24:23.069Z,10.07
2022-09-21T01:27:21.894Z,10.07
2022-09-21T01:30:00.101Z,10.08
2022-09-21T01:32:36.867Z,9.98
2022-09-21T01:35:13.465Z,9.87
2022-09-21T01:37:47.317Z,9.76
2022-09-21T01:40:29.933Z,9.78
2022-09-21T01:43:04.688Z,9.79
2022-09-21T01:45:44.133Z,9.79
2022-09-21T01:48:15.047Z,9.82
2022-09-21T01:50:50.036Z,9.78
2022-09-21T01:53:24.896Z,9.69
2022-09-21T01:55:59.175Z,9.68
2022-09-21T01:58:34.996Z,9.65
2022-09-21T02:01:10.373Z,9.67
2022-09-21T02:03:44.093Z,9.66
2022-09-21T02:06:13.132Z,9.58
2022-09-21T02:08:41.178Z,9.51
2022-09-21T02:11:12.591Z,9.42
2022-09-21T02:13:46.593Z,9.38
2022-09-21T02:16:35.638Z,9.40
2022-09-21T02:19:14.220Z,9.38
2022-09-21T02:21:59.106Z,9.38
2022-09-21T02:24:39.036Z,9.29
2022-09-21T02:27:21.334Z,9.23
2022-09-21T02:29:55.199Z,9.23
2022-09-21T02:32:35.975Z,9.19
2022-09-21T02:35:17.116Z,9.13
2022-09-21T02:37:55.942Z,9.12
2022-09-21T02:40:32.551Z,9.18
2022-09-21T02:43:07.680Z,9.23
2022-09-21T02:45:45.825Z,9.24
2022-09-21T02:48:21.644Z,9.22
2022-09-21T02:50:57.214Z,9.16
2022-09-21T02:53:31.705Z,9.11
2022-09-21T02:56:06.867Z,9.10
2022-09-21T02:58:40.008Z,9.10
2022-09-21T03:01:12.932Z,9.06
2022-09-21T03:03:45.068Z,8.94
2022-09-21T03:06:15.216Z,8.98
2022-09-21T03:08:43.634Z,8.98
2022-09-21T03:11:15.843Z,8.93
2022-09-21T03:13:45.640Z,8.92
2022-09-21T03:16:13.776Z,8.85
2022-09-21T03:18:44.268Z,8.75
2022-09-21T03:21:12.292Z,8.80
2022-09-21T03:23:41.065Z,8.83
2022-09-21T03:26:09.360Z,8.82
2022-09-21T03:28:37.222Z,8.84
2022-09-21T03:31:06.630Z,8.86
2022-09-21T03:33:34.620Z,8.87
2022-09-21T03:36:04.182Z,8.86
2022-09-21T03:38:32.013Z,8.86
2022-09-21T03:41:00.871Z,8.88
2022-09-21T03:43:28.719Z,8.84
2022-09-21T03:45:59.087Z,8.78
2022-09-21T03:48:27.137Z,8.70
2022-09-21T03:50:54.928Z,8.65
2022-09-21T03:53:24.071Z,8.63
2022-09-21T03:55:51.890Z,8.72
2022-09-21T03:58:19.989Z,8.76
2022-09-21T04:00:47.783Z,8.78
2022-09-21T04:03:15.665Z,8.78
2022-09-21T04:05:43.605Z,8.75
2022-09-21T04:08:12.936Z,8.74
2022-09-21T04:10:43.183Z,8.74
2022-09-21T04:13:12.291Z,8.76
2022-09-21T04:15:40.112Z,8.68
2022-09-21T04:18:08.375Z,8.68
2022-09-21T04:20:36.171Z,8.62
2022-09-21T04:23:04.179Z,8.66
2022-09-21T04:25:33.524Z,8.71
2022-09-21T04:28:03.508Z,8.71
2022-09-21T04:30:37.498Z,8.73
2022-09-21T04:33:07.025Z,8.76
2022-09-21T04:35:35.214Z,8.76
2022-09-21T04:38:03.774Z,8.80
2022-09-21T04:40:31.699Z,8.84
2022-09-21T04:42:59.670Z,8.82
2022-09-21T04:45:29.064Z,8.80
2022-09-21T04:47:56.812Z,8.81
2022-09-21T04:50:25.303Z,8.82
2022-09-21T04:53:04.371Z,8.80
2022-09-21T04:55:32.275Z,8.81
2022-09-21T04:58:00.071Z,8.74
2022-09-21T05:00:29.387Z,8.76
2022-09-21T05:02:57.403Z,8.75
2022-09-21T05:05:26.183Z,8.73
2022-09-21T05:07:55.933Z,8.55
2022-09-21T05:10:23.713Z,8.54
2022-09-21T05:12:52.748Z,8.60
2022-09-21T05:15:21.907Z,8.62
2022-09-21T05:17:51.025Z,8.67
2022-09-21T05:20:19.136Z,8.67
2022-09-21T05:22:46.926Z,8.74
2022-09-21T05:25:14.947Z,8.79
2022-09-21T05:27:43.417Z,8.78
2022-09-21T05:30:13.996Z,8.78
2022-09-21T05:32:48.588Z,8.83
2022-09-21T05:35:33.486Z,8.83
2022-09-21T05:38:10.885Z,8.81
2022-09-21T05:40:39.264Z,8.79
2022-09-21T05:43:09.256Z,8.84
2022-09-21T05:45:45.981Z,8.86
2022-09-21T05:48:19.842Z,8.82
2022-09-21T05:51:01.701Z,8.82
2022-09-21T05:53:48.356Z,8.87
2022-09-21T05:56:34.329Z,8.92
2022-09-21T05:59:29.874Z,9.04
2022-09-21T06:02:06.452Z,9.13
2022-09-21T06:04:35.447Z,9.18
2022-09-21T06:07:04.703Z,9.12
2022-09-21T06:09:32.588Z,9.12
2022-09-21T06:12:00.490Z,9.28
2022-09-21T06:14:28.607Z,9.39
2022-09-21T06:16:56.513Z,9.51
2022-09-21T06:19:24.379Z,9.64
2022-09-21T06:21:52.111Z,9.75
2022-09-21T06:24:24.865Z,9.97
2022-09-21T06:26:53.016Z,10.15
2022-09-21T06:29:23.503Z,10.41
2022-09-21T06:31:51.448Z,10.59
2022-09-21T06:34:19.295Z,10.70
2022-09-21T06:36:49.093Z,10.84
2022-09-21T06:39:19.616Z,11.02
2022-09-21T06:41:51.211Z,11.18
2022-09-21T06:44:19.109Z,11.44
2022-09-21T06:46:46.926Z,11.67
2022-09-21T06:49:14.960Z,11.81
2022-09-21T06:51:43.405Z,12.03
2022-09-21T06:54:11.398Z,12.22
2022-09-21T06:56:39.280Z,12.28
2022-09-21T06:59:09.021Z,12.07
2022-09-21T07:01:37.167Z,12.17
2022-09-21T07:04:06.940Z,12.43
2022-09-21T07:06:34.876Z,12.81
2022-09-21T07:11:54.449Z,13.43
2022-09-21T07:14:23.663Z,13.66
2022-09-21T07:16:52.886Z,13.94
2022-09-21T07:19:20.661Z,14.25
2022-09-21T07:21:48.412Z,14.42
2022-09-21T07:24:16.331Z,14.67
2022-09-21T07:26:44.075Z,15.06
2022-09-21T07:29:11.866Z,15.41
2022-09-21T07:31:44.870Z,15.76
2022-09-21T07:34:12.815Z,15.99
2022-09-21T07:36:40.680Z,16.23
2022-09-21T07:39:10.124Z,16.51
2022-09-21T07:41:38.999Z,16.66
2022-09-21T07:44:06.938Z,16.85
2022-09-21T07:46:37.787Z,17.01
2022-09-21T07:49:12.377Z,17.20
2022-09-21T07:51:40.666Z,17.47
2022-09-21T07:54:10.810Z,17.45
2022-09-21T07:56:39.703Z,17.55
2022-09-21T07:59:07.820Z,17.68
2022-09-21T08:01:38.326Z,17.79
2022-09-21T08:04:10.837Z,18.03
2022-09-21T08:06:39.989Z,18.36
2022-09-21T08:09:08.642Z,18.43
2022-09-21T08:11:37.634Z,18.63
2022-09-21T08:14:05.608Z,18.91
2022-09-21T08:16:33.969Z,19.08
2022-09-21T08:19:03.029Z,19.29
2022-09-21T08:21:32.285Z,19.37
2022-09-21T08:24:00.090Z,19.62
2022-09-21T08:26:28.128Z,19.90
2022-09-21T08:28:56.975Z,19.93
2022-09-21T08:31:26.287Z,20.13
2022-09-21T08:33:56.930Z,20.25
2022-09-21T08:36:25.549Z,19.81
2022-09-21T08:38:56.903Z,19.41
2022-09-21T08:41:44.744Z,19.16
2022-09-21T08:44:20.006Z,19.11
2022-09-21T08:46:57.298Z,19.00
2022-09-21T08:49:28.782Z,18.99
2022-09-21T08:52:02.017Z,19.45
2022-09-21T08:54:42.083Z,19.52
2022-09-21T08:57:13.174Z,19.28
2022-09-21T08:59:45.371Z,19.45
2022-09-21T09:02:41.585Z,19.24
2022-09-21T09:05:32.977Z,19.68
2022-09-21T09:08:30.519Z,19.93
2022-09-21T09:11:19.929Z,19.94
2022-09-21T09:14:06.690Z,20.26
2022-09-21T09:16:53.608Z,20.16
2022-09-21T09:19:31.560Z,20.31
2022-09-21T09:22:06.769Z,19.97
2022-09-21T09:24:41.824Z,19.94
2022-09-21T09:27:20.506Z,20.27
2022-09-21T09:30:02.834Z,20.70
2022-09-21T09:32:41.221Z,20.51
2022-09-21T09:35:25.691Z,20.85
2022-09-21T09:38:00.529Z,20.96
2022-09-21T09:41:07.387Z,21.50
2022-09-21T09:44:00.231Z,21.84
2022-09-21T09:46:44.460Z,21.00
2022-09-21T09:49:33.094Z,21.58
2022-09-21T09:52:01.993Z,21.97
2022-09-21T09:54:34.827Z,22.50
2022-09-21T09:57:05.526Z,22.56
2022-09-21T09:59:42.307Z,22.49
2022-09-21T10:02:22.335Z,22.71
2022-09-21T10:05:01.486Z,22.84
2022-09-21T10:07:42.907Z,23.27
2022-09-21T10:10:35.022Z,23.86
2022-09-21T10:13:12.131Z,23.99
2022-09-21T10:15:49.731Z,24.58
2022-09-21T10:18:23.548Z,24.41
2022-09-21T10:21:00.245Z,24.69
2022-09-21T10:23:30.918Z,25.25
2022-09-21T10:26:04.451Z,25.32
2022-09-21T10:28:33.195Z,25.84
2022-09-21T10:31:19.265Z,26.09
2022-09-21T10:33:55.185Z,25.79
2022-09-21T10:36:33.985Z,25.23
2022-09-21T10:39:18.767Z,24.73
2022-09-21T10:41:53.187Z,24.65
2022-09-21T10:44:25.497Z,24.95
2022-09-21T10:49:29.576Z,25.40
2022-09-21T10:51:59.227Z,25.85
2022-09-21T10:54:31.263Z,26.44
2022-09-21T10:57:07.278Z,26.32
2022-09-21T10:59:37.320Z,26.67
2022-09-21T11:02:36.908Z,26.87
2022-09-21T11:05:15.456Z,27.64
2022-09-21T11:07:52.283Z,27.61
2022-09-21T11:10:34.654Z,27.66
2022-09-21T11:13:26.876Z,27.50
2022-09-21T11:16:01.770Z,27.54
2022-09-21T11:18:56.377Z,27.73
2022-09-21T11:21:40.790Z,27.71
2022-09-21T11:24:20.891Z,27.81
2022-09-21T11:26:59.163Z,26.73
2022-09-21T11:29:33.906Z,26.17
2022-09-21T11:32:26.708Z,25.34
2022-09-21T11:35:21.545Z,24.42
2022-09-21T11:38:04.352Z,23.88
2022-09-21T11:41:20.725Z,23.68
2022-09-21T11:44:19.167Z,23.84
2022-09-21T11:47:02.896Z,24.37
2022-09-21T11:50:03.050Z,24.21
2022-09-21T11:52:58.125Z,23.88
2022-09-21T11:55:49.267Z,24.33
2022-09-21T11:58:30.946Z,24.53
2022-09-21T12:01:23.562Z,24.82
2022-09-21T12:04:17.748Z,25.38
2022-09-21T12:07:05.573Z,25.86
2022-09-21T12:10:14.029Z,26.25
2022-09-21T12:12:50.297Z,26.37
2022-09-21T12:15:32.132Z,25.41
2022-09-21T12:18:11.987Z,25.60
2022-09-21T12:20:55.159Z,24.88
2022-09-21T12:23:37.002Z,24.43
2022-09-21T12:26:08.646Z,24.16
2022-09-21T12:28:43.468Z,24.78
2022-09-21T12:31:20.913Z,25.39
2022-09-21T12:33:56.043Z,25.55
2022-09-21T12:36:35.092Z,26.26
2022-09-21T12:39:15.295Z,26.96
2022-09-21T12:41:55.470Z,26.67
2022-09-21T12:44:33.567Z,26.23
2022-09-21T12:47:09.396Z,26.79
2022-09-21T12:49:46.351Z,27.04
2022-09-21T12:52:25.306Z,27.08
2022-09-21T12:55:07.651Z,26.45
2022-09-21T12:58:14.063Z,27.17
2022-09-21T13:00:52.278Z,27.81
2022-09-21T13:03:31.272Z,27.82
2022-09-21T13:06:29.774Z,27.21
2022-09-21T13:09:05.232Z,27.24
2022-09-21T13:11:35.513Z,27.65
2022-09-21T13:14:05.379Z,28.00
2022-09-21T13:16:38.852Z,28.30
2022-09-21T13:19:22.440Z,28.30
2022-09-21T13:22:15.847Z,27.23
2022-09-21T13:25:01.218Z,27.00
2022-09-21T13:28:09.206Z,27.48
2022-09-21T13:30:42.186Z,27.84
2022-09-21T13:33:37.299Z,27.60
2022-09-21T13:36:30.382Z,28.00
2022-09-21T13:39:15.168Z,28.32
2022-09-21T13:42:02.786Z,28.13
2022-09-21T13:44:42.392Z,28.59
2022-09-21T13:47:12.375Z,28.90
2022-09-21T13:49:51.059Z,28.73
2022-09-21T13:52:32.497Z,28.49
2022-09-21T13:55:04.921Z,28.14
2022-09-21T13:57:39.870Z,28.76
2022-09-21T14:00:37.400Z,28.93
2022-09-21T14:03:23.055Z,29.22
2022-09-21T14:05:55.769Z,29.21
2022-09-21T14:08:31.298Z,28.56
2022-09-21T14:11:05.592Z,28.39
2022-09-21T14:13:37.203Z,28.85
2022-09-21T14:16:52.070Z,29.14
2022-09-21T14:20:05.013Z,28.85
2022-09-21T14:22:41.507Z,27.92
2022-09-21T14:25:47.940Z,26.87
2022-09-21T14:28:18.275Z,25.57
2022-09-21T14:31:01.580Z,24.96
2022-09-21T14:33:43.739Z,23.83
2022-09-21T14:36:19.649Z,23.61
2022-09-21T14:38:54.788Z,23.61
2022-09-21T14:41:25.031Z,24.00
2022-09-21T14:43:56.708Z,24.21
2022-09-21T14:46:54.029Z,24.70
2022-09-21T14:49:51.170Z,24.24
2022-09-21T14:52:40.443Z,23.91
2022-09-21T14:55:24.076Z,24.52
2022-09-21T14:58:25.076Z,24.72
2022-09-21T15:00:54.601Z,25.01
2022-09-21T15:03:52.892Z,25.03
2022-09-21T15:06:52.505Z,24.63
2022-09-21T15:10:22.692Z,24.31
2022-09-21T15:13:00.340Z,24.34
2022-09-21T15:15:40.547Z,23.92
2022-09-21T15:18:20.407Z,23.50
2022-09-21T15:21:01.091Z,23.97
2022-09-21T15:23:34.605Z,23.81
2022-09-21T15:26:10.394Z,24.21
2022-09-21T15:29:08.501Z,24.27
2022-09-21T15:31:40.227Z,24.48
2022-09-21T15:34:13.481Z,24.03
2022-09-21T15:36:43.878Z,24.54
2022-09-21T15:39:28.198Z,24.47
2022-09-21T15:42:18.390Z,24.89
2022-09-21T15:44:50.445Z,25.17
2022-09-21T15:47:23.548Z,24.63
2022-09-21T15:49:52.991Z,24.39
2022-09-21T15:52:31.589Z,24.04
2022-09-21T15:55:11.299Z,24.42
2022-09-21T15:57:43.187Z,24.43
2022-09-21T16:00:24.643Z,24.55
2022-09-21T16:03:04.987Z,24.11
2022-09-21T16:05:44.641Z,23.74
2022-09-21T16:08:26.175Z,23.56
2022-09-21T16:11:14.416Z,23.16
2022-09-21T16:14:02.226Z,22.88
2022-09-21T16:16:30.154Z,22.60
2022-09-21T16:19:01.568Z,22.53
2022-09-21T16:21:33.921Z,22.20
2022-09-21T16:24:17.850Z,22.05
2022-09-21T16:26:58.134Z,21.61
2022-09-21T16:29:36.933Z,21.16
2022-09-21T16:32:31.581Z,20.97
2022-09-21T16:35:27.801Z,20.74
2022-09-21T16:37:57.999Z,20.60
2022-09-21T16:40:26.830Z,20.40
2022-09-21T16:42:56.616Z,20.30
2022-09-21T16:45:29.560Z,20.10
2022-09-21T16:47:57.694Z,19.86
2022-09-21T16:50:26.295Z,19.58
2022-09-21T16:52:54.140Z,19.43
2022-09-21T16:55:25.552Z,19.29
2022-09-21T16:57:57.747Z,19.18
2022-09-21T17:00:31.115Z,19.05
2022-09-21T17:02:58.949Z,18.90
2022-09-21T17:05:26.726Z,18.83
2022-09-21T17:07:57.626Z,18.76
2022-09-21T17:10:31.675Z,18.67
2022-09-21T17:13:00.800Z,18.55
2022-09-21T17:15:31.525Z,18.38
2022-09-21T17:17:59.593Z,18.22
2022-09-21T17:20:34.101Z,18.09
2022-09-21T17:23:03.174Z,17.96
2022-09-21T17:25:32.699Z,17.77
2022-09-21T17:28:10.231Z,17.65
2022-09-21T17:30:38.136Z,17.56
2022-09-21T17:33:05.955Z,17.45
2022-09-21T17:35:38.880Z,17.31
2022-09-21T17:38:11.249Z,17.20
2022-09-21T17:40:43.295Z,17.05
2022-09-21T17:43:37.398Z,16.89
2022-09-21T17:46:16.060Z,16.75
2022-09-21T17:48:44.616Z,16.71
2022-09-21T17:51:33.191Z,16.60
2022-09-21T17:54:02.376Z,16.48
2022-09-21T17:56:43.351Z,16.35
2022-09-21T17:59:29.397Z,16.21
2022-09-21T18:01:59.249Z,15.97
2022-09-21T18:04:32.755Z,15.80
2022-09-21T18:07:01.418Z,15.69
2022-09-21T18:09:29.824Z,15.58
2022-09-21T18:12:38.378Z,15.49
2022-09-21T18:15:25.154Z,15.48
2022-09-21T18:18:07.207Z,15.44
2022-09-21T18:20:51.108Z,15.25
2022-09-21T18:23:31.290Z,15.14
2022-09-21T18:26:02.999Z,15.11
2022-09-21T18:28:40.770Z,15.08
2022-09-21T18:31:39.954Z,15.00
2022-09-21T18:34:31.849Z,14.92
2022-09-21T18:37:15.636Z,14.80
2022-09-21T18:39:57.732Z,14.68
2022-09-21T18:42:40.446Z,14.64
2022-09-21T18:45:18.294Z,14.62
2022-09-21T18:48:01.663Z,14.59
2022-09-21T18:50:41.037Z,14.55
2022-09-21T18:53:23.373Z,14.58
2022-09-21T18:55:53.503Z,14.49
2022-09-21T18:58:22.090Z,14.38
2022-09-21T19:00:51.972Z,14.33
2022-09-21T19:03:22.874Z,14.17
2022-09-21T19:06:16.470Z,14.03
2022-09-21T19:08:58.702Z,13.97
2022-09-21T19:11:41.112Z,13.89
2022-09-21T19:14:34.652Z,13.80
2022-09-21T19:17:28.896Z,13.59
2022-09-21T19:20:24.235Z,13.43
2022-09-21T19:23:02.974Z,13.42
2022-09-21T19:25:44.770Z,13.39
2022-09-21T19:28:58.254Z,13.32
2022-09-21T19:31:28.238Z,13.28
2022-09-21T19:33:57.046Z,13.23
2022-09-21T19:36:26.686Z,13.15
2022-09-21T19:38:55.606Z,13.14
2022-09-21T19:41:43.075Z,13.08
2022-09-21T19:44:34.088Z,13.02
2022-09-21T19:47:16.525Z,12.97
2022-09-21T19:49:50.991Z,12.95
2022-09-21T19:52:30.613Z,12.93
2022-09-21T19:55:18.218Z,12.88
2022-09-21T19:58:05.668Z,12.78
2022-09-21T20:00:34.073Z,12.64
2022-09-21T20:03:07.340Z,12.58
2022-09-21T20:05:51.893Z,12.53
2022-09-21T20:08:30.454Z,12.44
2022-09-21T20:11:12.674Z,12.33
2022-09-21T20:14:07.843Z,12.24
2022-09-21T20:16:48.138Z,12.24
2022-09-21T20:19:37.445Z,12.24
2022-09-21T20:22:12.948Z,12.20
2022-09-21T20:24:54.396Z,12.18
2022-09-21T20:27:34.904Z,12.14
2022-09-21T20:30:07.051Z,12.03
2022-09-21T20:32:37.613Z,11.99
2022-09-21T20:35:16.929Z,11.99
2022-09-21T20:37:46.189Z,11.99
2022-09-21T20:40:17.427Z,11.99
2022-09-21T20:42:47.730Z,11.95
2022-09-21T20:45:16.788Z,11.94
2022-09-21T20:47:48.013Z,11.89
2022-09-21T20:50:17.064Z,11.90
2022-09-21T20:52:45.270Z,11.93
2022-09-21T20:55:20.359Z,11.87
2022-09-21T20:57:48.149Z,11.91
2022-09-21T21:00:17.181Z,11.95
2022-09-21T21:02:45.036Z,11.93
2022-09-21T21:05:12.814Z,11.92
2022-09-21T21:07:42.821Z,11.89
2022-09-21T21:10:16.429Z,11.89
2022-09-21T21:12:45.580Z,11.89
2022-09-21T21:15:13.529Z,11.89
2022-09-21T21:17:42.535Z,11.87
2022-09-21T21:20:11.035Z,11.84
2022-09-21T21:22:38.987Z,11.79
2022-09-21T21:25:09.109Z,11.66
2022-09-21T21:27:37.402Z,11.66
2022-09-21T21:30:09.826Z,11.69
2022-09-21T21:32:37.985Z,11.67
2022-09-21T21:35:08.259Z,11.66
2022-09-21T21:37:36.230Z,11.64
2022-09-21T21:40:07.026Z,11.62
2022-09-21T21:42:35.079Z,11.56
2022-09-21T21:45:08.051Z,11.51
2022-09-21T21:47:40.501Z,11.44
2022-09-21T21:50:11.270Z,11.42
2022-09-21T21:52:40.539Z,11.40
2022-09-21T21:55:10.054Z,11.39
2022-09-21T21:57:38.098Z,11.37
2022-09-21T22:00:11.695Z,11.30
2022-09-21T22:02:39.521Z,11.29
2022-09-21T22:05:09.017Z,11.28
2022-09-21T22:07:37.733Z,11.10
2022-09-21T22:10:08.988Z,11.14
2022-09-21T22:12:36.842Z,11.15
2022-09-21T22:15:07.758Z,11.15
2022-09-21T22:17:35.683Z,11.11
2022-09-21T22:20:04.387Z,11.13
2022-09-21T22:22:33.386Z,11.15
2022-09-21T22:25:04.073Z,11.09
2022-09-21T22:27:31.953Z,11.07
2022-09-21T22:30:00.732Z,10.97
2022-09-21T22:32:29.877Z,10.93
2022-09-21T22:34:57.781Z,10.89
2022-09-21T22:37:25.615Z,10.88
2022-09-21T22:39:53.741Z,10.82
2022-09-21T22:42:21.667Z,10.78
2022-09-21T22:44:49.459Z,10.76
2022-09-21T22:47:17.441Z,10.73
2022-09-21T22:49:46.555Z,10.69
2022-09-21T22:52:14.411Z,10.74
2022-09-21T22:54:42.291Z,10.76
2022-09-21T22:57:10.329Z,10.75
2022-09-21T22:59:38.243Z,10.74
2022-09-21T23:02:09.311Z,10.76
2022-09-21T23:04:37.570Z,10.75
2022-09-21T23:07:06.762Z,10.75
2022-09-21T23:09:34.743Z,10.74
2022-09-21T23:12:02.861Z,10.73
2022-09-21T23:14:30.754Z,10.73
2022-09-21T23:16:58.802Z,10.75
2022-09-21T23:19:26.591Z,10.73
2022-09-21T23:21:54.874Z,10.75
2022-09-21T23:24:24.802Z,10.73
2022-09-21T23:26:52.874Z,10.72
2022-09-21T23:29:24.027Z,10.63
2022-09-21T23:31:51.825Z,10.54
2022-09-21T23:34:19.686Z,10.55
2022-09-21T23:36:47.526Z,10.52
2022-09-21T23:39:15.607Z,10.42
2022-09-21T23:41:45.448Z,10.46
2022-09-21T23:44:13.732Z,10.49
2022-09-21T23:46:41.956Z,10.36
2022-09-21T23:49:10.117Z,10.28
2022-09-21T23:51:38.862Z,10.24
2022-09-21T23:54:08.065Z,10.29
2022-09-21T23:56:35.990Z,10.37
2022-09-21T23:59:05.850Z,10.39
